Time;durP1;ratioP1;P1;durP2;ratioP2;P2;SDS_P1;SDS_P2;PMS_P1;PMS_P2;Temp;Humidity;BMP_temperature;BMP_pressure;BME280_temperature;BME280_humidity;BME280_pressure;Samples;Min_cycle;Max_cycle;Signal;HPM_P1;HPM_P2
2021/09/18 00:01:45;;;;;;;3.35;2.25;;;14.50;52.60;;;;;;5108791;28;20240;-56
2021/09/18 00:04:16;;;;;;;2.70;2.15;;;14.50;52.60;;;;;;5114502;28;20260;-55
2021/09/18 00:06:46;;;;;;;3.33;2.08;;;14.50;52.60;;;;;;5113838;28;20280;-55
2021/09/18 00:09:16;;;;;;;3.40;2.33;;;14.50;52.60;;;;;;5113611;28;20291;-52
2021/09/18 00:11:46;;;;;;;3.40;2.20;;;14.60;52.70;;;;;;5113943;28;20304;-51
2021/09/18 00:14:16;;;;;;;3.38;1.77;;;14.60;52.60;;;;;;5113861;28;20268;-54
2021/09/18 00:16:45;;;;;;;2.53;1.98;;;14.60;52.40;;;;;;5114040;28;20246;-54
2021/09/18 00:19:16;;;;;;;3.10;1.77;;;14.60;52.30;;;;;;5113781;28;20260;-50
2021/09/18 00:21:46;;;;;;;3.38;1.95;;;14.70;52.30;;;;;;5113121;28;20293;-52
2021/09/18 00:24:16;;;;;;;1.70;1.60;;;14.70;52.20;;;;;;5113422;28;20280;-55
2021/09/18 00:26:46;;;;;;;2.90;1.70;;;14.70;52.10;;;;;;5073144;28;20206;-51
2021/09/18 00:29:16;;;;;;;3.05;1.63;;;14.70;52.00;;;;;;5072912;28;20214;-55
2021/09/18 00:31:46;;;;;;;2.80;1.80;;;14.80;52.00;;;;;;5073024;28;20230;-55
2021/09/18 00:34:17;;;;;;;2.83;1.60;;;14.80;52.00;;;;;;5072843;28;20258;-52
2021/09/18 00:36:46;;;;;;;2.15;1.55;;;14.80;52.00;;;;;;5072717;28;20303;-51
2021/09/18 00:39:16;;;;;;;1.80;1.30;;;14.80;51.90;;;;;;5072805;28;20242;-52
2021/09/18 00:41:46;;;;;;;2.90;1.63;;;14.90;51.90;;;;;;5073042;28;20659;-51
2021/09/18 00:44:18;;;;;;;3.25;1.40;;;14.90;51.80;;;;;;5072794;28;20429;-52
2021/09/18 00:46:48;;;;;;;3.25;1.70;;;14.90;51.70;;;;;;5072375;28;20202;-50
2021/09/18 00:49:19;;;;;;;2.10;1.40;;;14.90;51.70;;;;;;5072293;28;20347;-54
2021/09/18 00:51:49;;;;;;;2.35;1.35;;;14.90;51.60;;;;;;5072108;28;20268;-54
2021/09/18 00:54:19;;;;;;;3.10;1.48;;;15.00;51.60;;;;;;5072135;28;20336;-55
2021/09/18 00:56:53;;;;;;;2.17;1.20;;;15.00;51.60;;;;;;5072924;28;20207;-53
2021/09/18 00:59:23;;;;;;;2.70;1.50;;;15.00;51.60;;;;;;5071245;28;20202;-53
2021/09/18 01:01:53;;;;;;;2.75;1.58;;;15.00;51.50;;;;;;5072665;28;20248;-55
2021/09/18 01:04:24;;;;;;;2.35;1.35;;;15.00;51.50;;;;;;5072510;28;20254;-53
2021/09/18 01:06:54;;;;;;;2.08;1.15;;;15.00;51.50;;;;;;5071712;28;20238;-54
2021/09/18 01:09:24;;;;;;;2.60;1.23;;;15.10;51.60;;;;;;5071916;28;20207;-54
2021/09/18 01:11:54;;;;;;;2.58;1.33;;;15.10;51.70;;;;;;5071912;28;20755;-50
2021/09/18 01:14:23;;;;;;;3.28;1.35;;;15.10;51.60;;;;;;5072068;28;20257;-52
2021/09/18 01:16:54;;;;;;;2.40;1.08;;;15.20;51.70;;;;;;5071799;28;20234;-48
2021/09/18 01:19:25;;;;;;;1.80;1.10;;;15.10;51.50;;;;;;5079393;28;20682;-52
2021/09/18 01:21:55;;;;;;;3.45;1.75;;;15.20;51.50;;;;;;5092380;28;20205;-54
2021/09/18 01:24:26;;;;;;;2.08;1.40;;;15.20;51.50;;;;;;5091845;28;20765;-52
2021/09/18 01:26:56;;;;;;;2.33;1.40;;;15.20;51.50;;;;;;5095003;28;20202;-52
2021/09/18 01:29:26;;;;;;;2.45;1.25;;;15.20;51.40;;;;;;5092428;28;20639;-51
2021/09/18 01:31:55;;;;;;;1.73;1.10;;;15.30;51.40;;;;;;5092567;28;20328;-55
2021/09/18 01:34:26;;;;;;;1.67;1.10;;;15.30;51.40;;;;;;5092189;28;20261;-55
2021/09/18 01:36:56;;;;;;;1.70;1.10;;;15.30;51.30;;;;;;5092095;28;20624;-53
2021/09/18 01:39:27;;;;;;;1.75;1.00;;;15.30;51.30;;;;;;5091983;28;20237;-54
2021/09/18 01:41:57;;;;;;;1.15;0.93;;;15.30;51.20;;;;;;5091884;28;20220;-56
2021/09/18 01:44:27;;;;;;;3.85;1.23;;;15.30;51.10;;;;;;5091833;28;20262;-52
2021/09/18 01:46:57;;;;;;;3.35;1.52;;;15.40;51.10;;;;;;5091033;28;20202;-55
2021/09/18 01:49:28;;;;;;;2.38;1.08;;;15.40;51.10;;;;;;5087994;28;20245;-55
2021/09/18 01:52:04;;;;;;;1.08;0.90;;;15.40;51.20;;;;;;5092103;28;20275;-55
2021/09/18 01:54:37;;;;;;;2.67;1.02;;;15.40;51.10;;;;;;5091714;28;20587;-56
2021/09/18 01:57:09;;;;;;;2.13;1.08;;;15.40;51.00;;;;;;5091790;28;20194;-56
2021/09/18 01:59:39;;;;;;;1.90;1.17;;;15.50;51.10;;;;;;5091807;28;20289;-53
2021/09/18 02:02:09;;;;;;;1.45;1.05;;;15.50;50.90;;;;;;5091960;28;20241;-53
2021/09/18 02:04:38;;;;;;;3.80;0.90;;;15.50;50.70;;;;;;5092261;28;20650;-54
2021/09/18 02:07:08;;;;;;;2.50;1.00;;;15.50;50.70;;;;;;5091764;28;20198;-54
2021/09/18 02:09:39;;;;;;;2.17;1.00;;;15.50;50.70;;;;;;5090856;28;20628;-56
2021/09/18 02:12:09;;;;;;;3.88;1.35;;;15.50;50.70;;;;;;5091113;28;20310;-53
2021/09/18 02:14:39;;;;;;;1.30;0.90;;;15.50;50.70;;;;;;5091182;28;20225;-52
2021/09/18 02:17:09;;;;;;;2.15;1.15;;;15.60;50.70;;;;;;5091332;28;20237;-56
2021/09/18 02:19:39;;;;;;;1.58;0.70;;;15.50;50.60;;;;;;5091497;28;20281;-56
2021/09/18 02:22:09;;;;;;;2.00;1.10;;;15.60;50.60;;;;;;5091702;28;20353;-55
2021/09/18 02:24:39;;;;;;;2.78;1.10;;;15.60;50.70;;;;;;5090767;28;20257;-50
2021/09/18 02:27:09;;;;;;;1.67;0.80;;;15.60;50.70;;;;;;5091160;28;20237;-51
2021/09/18 02:29:39;;;;;;;1.48;0.80;;;15.60;50.70;;;;;;5090993;28;20233;-53
2021/09/18 02:32:09;;;;;;;1.42;0.95;;;15.70;50.70;;;;;;5091312;28;20709;-54
2021/09/18 02:34:39;;;;;;;1.85;1.00;;;15.70;50.70;;;;;;5091479;28;20693;-52
2021/09/18 02:37:08;;;;;;;1.50;0.90;;;15.70;50.70;;;;;;5091240;28;20267;-55
2021/09/18 02:39:39;;;;;;;1.95;0.75;;;15.80;50.80;;;;;;5091350;28;20241;-54
2021/09/18 02:42:09;;;;;;;1.90;0.93;;;15.80;50.60;;;;;;5090160;28;20228;-55
2021/09/18 02:44:39;;;;;;;1.63;0.80;;;15.80;50.50;;;;;;5091148;28;20717;-55
2021/09/18 02:47:09;;;;;;;2.00;0.80;;;15.80;50.50;;;;;;5091046;28;20198;-52
2021/09/18 02:49:41;;;;;;;1.10;0.70;;;15.90;50.50;;;;;;5091048;28;20674;-50
2021/09/18 02:52:11;;;;;;;2.15;0.70;;;15.80;50.40;;;;;;5091147;28;20310;-49
2021/09/18 02:54:42;;;;;;;1.33;0.80;;;15.90;50.40;;;;;;5090797;28;20241;-55
2021/09/18 02:57:12;;;;;;;1.27;0.57;;;15.90;50.30;;;;;;5091100;28;20620;-56
2021/09/18 02:59:42;;;;;;;1.20;0.70;;;16.00;50.30;;;;;;5090766;28;20217;-49
2021/09/18 03:02:11;;;;;;;0.80;0.63;;;16.00;50.30;;;;;;5090539;28;20257;-55
2021/09/18 03:04:41;;;;;;;0.90;0.55;;;15.90;50.20;;;;;;5090830;28;20296;-50
2021/09/18 03:07:11;;;;;;;1.58;0.80;;;16.00;50.20;;;;;;5090232;28;20248;-54
2021/09/18 03:09:42;;;;;;;1.13;0.60;;;16.00;50.20;;;;;;5090587;28;20334;-55
2021/09/18 03:12:11;;;;;;;1.40;1.05;;;16.10;50.30;;;;;;5090399;28;20264;-52
2021/09/18 03:14:41;;;;;;;1.08;0.70;;;16.10;50.30;;;;;;5090535;28;20772;-54
2021/09/18 03:17:11;;;;;;;1.13;0.80;;;16.10;50.20;;;;;;5091455;28;20258;-53
2021/09/18 03:19:41;;;;;;;2.10;0.75;;;16.10;50.20;;;;;;5091145;28;20240;-55
2021/09/18 03:22:10;;;;;;;0.77;0.60;;;16.20;50.20;;;;;;5089430;28;20271;-49
2021/09/18 03:24:41;;;;;;;0.70;0.70;;;16.20;50.10;;;;;;5090356;28;20499;-53
2021/09/18 03:27:14;;;;;;;1.15;0.60;;;16.20;49.90;;;;;;5093229;28;20277;-51
2021/09/18 03:29:43;;;;;;;1.92;0.82;;;16.20;49.90;;;;;;5074297;28;20211;-54
2021/09/18 03:32:13;;;;;;;1.70;0.82;;;16.20;49.80;;;;;;5070338;28;20226;-54
2021/09/18 03:34:43;;;;;;;0.77;0.77;;;16.30;50.00;;;;;;5070283;28;20223;-54
2021/09/18 03:37:13;;;;;;;0.98;0.63;;;16.30;50.00;;;;;;5070150;28;20214;-54
2021/09/18 03:39:43;;;;;;;1.13;0.70;;;16.30;50.00;;;;;;5069584;28;20249;-53
2021/09/18 03:42:13;;;;;;;1.05;0.70;;;16.30;49.80;;;;;;5069638;28;20198;-51
2021/09/18 03:44:43;;;;;;;1.05;0.80;;;16.30;49.70;;;;;;5069898;28;20319;-53
2021/09/18 03:47:13;;;;;;;2.20;0.60;;;16.40;49.80;;;;;;5070162;28;20242;-53
2021/09/18 03:49:43;;;;;;;0.95;0.70;;;16.40;49.90;;;;;;5070080;28;20238;-53
2021/09/18 03:52:12;;;;;;;1.70;0.60;;;16.40;49.90;;;;;;5069627;28;20313;-50
2021/09/18 03:54:43;;;;;;;0.73;0.60;;;16.40;49.80;;;;;;5072465;28;20261;-53
2021/09/18 03:57:13;;;;;;;1.45;0.77;;;16.50;49.90;;;;;;5089623;28;20247;-53
2021/09/18 03:59:43;;;;;;;1.10;0.57;;;16.50;49.80;;;;;;5090044;28;20633;-51
2021/09/18 04:02:12;;;;;;;0.73;0.70;;;16.50;49.60;;;;;;5090199;28;20241;-55
2021/09/18 04:04:42;;;;;;;1.20;0.60;;;16.50;49.70;;;;;;5090271;28;20265;-55
2021/09/18 04:07:13;;;;;;;2.25;0.80;;;16.60;49.70;;;;;;5089933;28;20241;-55
2021/09/18 04:09:44;;;;;;;1.98;0.95;;;16.60;49.60;;;;;;5089798;28;20212;-55
2021/09/18 04:12:13;;;;;;;0.77;0.60;;;16.60;49.50;;;;;;5089895;28;20261;-50
2021/09/18 04:14:43;;;;;;;1.50;0.70;;;16.60;49.50;;;;;;5089782;28;20272;-54
2021/09/18 04:17:13;;;;;;;0.70;0.50;;;16.60;49.60;;;;;;5089879;28;20202;-55
2021/09/18 04:19:43;;;;;;;1.35;0.68;;;16.70;49.60;;;;;;5089984;28;20245;-54
2021/09/18 04:22:12;;;;;;;1.20;0.77;;;16.70;49.60;;;;;;5089565;28;20312;-53
2021/09/18 04:24:44;;;;;;;0.80;0.50;;;16.70;49.60;;;;;;5088897;28;20225;-53
2021/09/18 04:27:14;;;;;;;1.10;0.60;;;16.70;49.60;;;;;;5088944;28;20564;-52
2021/09/18 04:29:43;;;;;;;1.83;0.70;;;16.70;49.50;;;;;;5089608;28;20241;-51
2021/09/18 04:32:13;;;;;;;1.10;0.70;;;16.80;49.60;;;;;;5089517;28;20222;-53
2021/09/18 04:34:43;;;;;;;1.35;0.70;;;16.80;49.60;;;;;;5092615;28;20254;-52
2021/09/18 04:37:13;;;;;;;1.98;0.60;;;16.80;49.60;;;;;;5092842;28;20237;-50
2021/09/18 04:39:44;;;;;;;1.55;0.70;;;16.80;49.50;;;;;;5092930;28;20233;-50
2021/09/18 04:42:13;;;;;;;1.85;0.70;;;16.80;49.50;;;;;;5093138;28;20348;-53
2021/09/18 04:44:43;;;;;;;1.58;0.65;;;16.80;49.50;;;;;;5093247;28;20257;-52
2021/09/18 04:47:13;;;;;;;1.20;0.60;;;16.90;49.50;;;;;;5093079;28;20210;-49
2021/09/18 04:49:43;;;;;;;0.98;0.60;;;16.90;49.40;;;;;;5092719;28;20233;-55
2021/09/18 04:52:12;;;;;;;0.85;0.63;;;16.90;49.40;;;;;;5092827;28;20283;-51
2021/09/18 04:54:43;;;;;;;1.63;0.80;;;16.90;49.50;;;;;;5092300;28;20348;-54
2021/09/18 04:57:13;;;;;;;2.22;0.73;;;16.90;50.00;;;;;;5092855;28;20652;-51
2021/09/18 04:59:43;;;;;;;2.42;0.70;;;16.90;49.40;;;;;;5092608;28;20240;-54
2021/09/18 05:02:13;;;;;;;1.40;0.80;;;16.90;49.30;;;;;;5092625;28;20242;-56
2021/09/18 05:04:43;;;;;;;1.25;0.50;;;16.90;49.30;;;;;;5092937;28;20728;-54
2021/09/18 05:07:12;;;;;;;1.05;0.68;;;16.90;49.30;;;;;;5092334;28;20522;-52
2021/09/18 05:09:43;;;;;;;2.92;0.90;;;17.00;49.30;;;;;;5092165;28;20584;-55
2021/09/18 05:12:13;;;;;;;1.25;0.70;;;17.00;49.30;;;;;;5092364;28;20259;-54
2021/09/18 05:14:43;;;;;;;1.40;0.70;;;17.00;49.30;;;;;;5092271;28;20276;-53
2021/09/18 05:17:12;;;;;;;1.13;0.47;;;17.00;49.20;;;;;;5092438;28;20229;-55
2021/09/18 05:19:42;;;;;;;2.63;0.70;;;17.00;49.20;;;;;;5091478;28;20244;-54
2021/09/18 05:22:12;;;;;;;1.50;0.68;;;17.00;49.20;;;;;;5092580;28;20206;-52
2021/09/18 05:24:43;;;;;;;1.60;0.60;;;17.00;49.30;;;;;;5105209;28;20313;-58
2021/09/18 05:27:13;;;;;;;0.90;0.80;;;17.00;49.30;;;;;;5092302;28;20236;-58
2021/09/18 05:29:44;;;;;;;2.33;0.90;;;17.00;49.30;;;;;;5092180;28;20296;-55
2021/09/18 05:32:13;;;;;;;2.78;0.90;;;17.00;49.30;;;;;;5094431;28;20223;-57
2021/09/18 05:34:43;;;;;;;2.92;1.48;;;17.00;49.30;;;;;;5091699;28;20691;-58
2021/09/18 05:37:13;;;;;;;2.25;1.70;;;17.00;49.30;;;;;;5088488;28;20285;-49
2021/09/18 05:39:44;;;;;;;2.38;1.70;;;17.00;49.30;;;;;;5100220;28;20620;-53
2021/09/18 05:42:14;;;;;;;3.40;2.22;;;17.00;49.30;;;;;;5107873;28;20243;-55
2021/09/18 05:44:43;;;;;;;3.22;2.35;;;17.00;49.40;;;;;;5109310;28;20265;-48
2021/09/18 05:47:13;;;;;;;2.33;2.10;;;16.90;49.40;;;;;;5110055;28;20240;-50
2021/09/18 05:49:43;;;;;;;2.95;2.15;;;16.90;49.40;;;;;;5110116;28;20661;-49
2021/09/18 05:52:13;;;;;;;2.97;2.35;;;17.00;49.50;;;;;;5111484;28;20363;-48
2021/09/18 05:54:43;;;;;;;3.10;2.33;;;16.90;49.40;;;;;;5110473;28;20268;-50
2021/09/18 05:57:13;;;;;;;3.47;2.60;;;16.90;49.30;;;;;;5093890;28;20566;-46
2021/09/18 05:59:43;;;;;;;3.28;2.63;;;16.90;49.30;;;;;;5070616;28;20249;-51
2021/09/18 06:02:13;;;;;;;3.45;2.40;;;16.90;49.30;;;;;;5071369;28;20243;-55
2021/09/18 06:04:42;;;;;;;4.57;2.60;;;16.90;49.30;;;;;;5071646;28;20222;-49
2021/09/18 06:07:12;;;;;;;3.13;2.40;;;16.90;49.40;;;;;;5070988;28;20632;-54
2021/09/18 06:09:43;;;;;;;3.42;2.65;;;16.90;49.40;;;;;;5070933;28;20210;-54
2021/09/18 06:12:13;;;;;;;3.47;2.75;;;16.90;49.50;;;;;;5071090;28;20307;-51
2021/09/18 06:14:43;;;;;;;5.95;2.53;;;16.90;49.50;;;;;;5071116;28;20265;-50
2021/09/18 06:17:12;;;;;;;3.63;2.58;;;16.90;49.50;;;;;;5070574;28;20294;-54
2021/09/18 06:19:42;;;;;;;2.97;2.42;;;16.90;49.50;;;;;;5070893;28;20294;-51
2021/09/18 06:22:12;;;;;;;3.17;2.33;;;16.80;49.60;;;;;;5071062;28;20252;-54
2021/09/18 06:24:43;;;;;;;3.47;2.30;;;16.90;49.60;;;;;;5074228;28;20685;-49
2021/09/18 06:27:13;;;;;;;3.63;2.00;;;16.80;49.60;;;;;;5091160;28;20198;-53
2021/09/18 06:29:43;;;;;;;4.05;2.90;;;16.80;49.60;;;;;;5091310;28;20205;-53
2021/09/18 06:32:13;;;;;;;3.30;2.70;;;16.80;49.60;;;;;;5091443;28;20633;-55
2021/09/18 06:34:42;;;;;;;4.18;2.25;;;16.80;49.70;;;;;;5091216;28;20295;-50
2021/09/18 06:37:12;;;;;;;3.28;2.35;;;16.80;49.70;;;;;;5091198;28;20666;-50
2021/09/18 06:39:43;;;;;;;3.55;2.63;;;16.80;49.70;;;;;;5090947;28;20234;-56
2021/09/18 06:42:13;;;;;;;3.38;2.55;;;16.80;49.70;;;;;;5090729;28;20249;-51
2021/09/18 06:44:44;;;;;;;3.17;2.50;;;16.70;49.70;;;;;;5090701;28;20261;-49
2021/09/18 06:47:14;;;;;;;3.15;2.55;;;16.70;49.70;;;;;;5090733;28;20197;-50
2021/09/18 06:49:44;;;;;;;3.85;2.35;;;16.70;49.70;;;;;;5091366;28;20347;-49
2021/09/18 06:52:14;;;;;;;2.88;2.40;;;16.70;49.70;;;;;;5090843;28;20261;-53
2021/09/18 06:54:45;;;;;;;3.25;2.58;;;16.70;49.80;;;;;;5090805;28;20265;-53
2021/09/18 06:57:14;;;;;;;3.05;2.47;;;16.70;49.80;;;;;;5091041;28;20241;-55
2021/09/18 06:59:44;;;;;;;3.53;2.80;;;16.60;49.80;;;;;;5090774;28;20267;-53
2021/09/18 07:02:14;;;;;;;3.35;2.38;;;16.60;49.80;;;;;;5090708;28;20202;-51
2021/09/18 07:04:44;;;;;;;3.20;2.28;;;16.60;49.80;;;;;;5091455;28;20709;-53
2021/09/18 07:07:13;;;;;;;2.63;2.40;;;16.60;49.80;;;;;;5091150;28;20527;-51
2021/09/18 07:09:44;;;;;;;2.38;2.17;;;16.60;49.90;;;;;;5090831;28;20244;-54
2021/09/18 07:12:14;;;;;;;3.53;2.38;;;16.60;49.90;;;;;;5090684;28;20261;-54
2021/09/18 07:14:44;;;;;;;2.47;2.20;;;16.60;50.00;;;;;;5090835;28;20304;-54
2021/09/18 07:17:13;;;;;;;2.55;2.30;;;16.50;50.00;;;;;;5090444;28;20614;-51
2021/09/18 07:19:43;;;;;;;2.40;2.20;;;16.50;49.90;;;;;;5090520;28;20233;-51
2021/09/18 07:22:13;;;;;;;2.80;2.30;;;16.50;50.00;;;;;;5090737;28;20812;-52
2021/09/18 07:24:44;;;;;;;2.78;2.30;;;16.50;50.00;;;;;;5090193;28;20293;-52
2021/09/18 07:27:14;;;;;;;3.15;2.50;;;16.40;49.90;;;;;;5089803;28;20300;-49
2021/09/18 07:29:43;;;;;;;2.80;2.20;;;16.50;50.00;;;;;;5092332;28;20221;-55
2021/09/18 07:32:13;;;;;;;2.88;2.30;;;16.40;50.00;;;;;;5092595;28;20257;-54
2021/09/18 07:34:43;;;;;;;2.70;2.30;;;16.40;50.00;;;;;;5090178;28;20305;-55
2021/09/18 07:37:13;;;;;;;3.88;2.20;;;16.30;49.90;;;;;;5090326;28;20198;-57
2021/09/18 07:39:44;;;;;;;2.92;2.10;;;16.30;50.00;;;;;;5089945;28;20297;-53
2021/09/18 07:42:13;;;;;;;2.40;2.20;;;16.30;50.00;;;;;;5089971;28;20264;-54
2021/09/18 07:44:43;;;;;;;3.13;2.30;;;16.30;50.00;;;;;;5089986;28;20264;-54
2021/09/18 07:47:13;;;;;;;2.83;2.20;;;16.30;50.00;;;;;;5090413;28;20672;-56
2021/09/18 07:49:43;;;;;;;3.45;2.53;;;16.30;50.10;;;;;;5089935;28;20661;-46
2021/09/18 07:52:12;;;;;;;2.45;2.25;;;16.20;50.10;;;;;;5090036;28;20280;-55
2021/09/18 07:54:43;;;;;;;3.00;2.00;;;16.20;50.10;;;;;;5089960;28;20260;-50
2021/09/18 07:57:13;;;;;;;2.75;2.13;;;16.20;50.10;;;;;;5089892;28;20247;-48
2021/09/18 07:59:43;;;;;;;2.22;2.03;;;16.20;50.10;;;;;;5090022;28;20202;-46
2021/09/18 08:02:13;;;;;;;2.33;2.13;;;16.20;50.10;;;;;;5089958;28;20253;-56
2021/09/18 08:04:43;;;;;;;3.80;2.30;;;16.10;50.00;;;;;;5090319;28;20690;-54
2021/09/18 08:07:12;;;;;;;3.17;2.40;;;16.10;50.00;;;;;;5090681;28;20233;-51
2021/09/18 08:09:42;;;;;;;2.22;2.03;;;16.10;50.10;;;;;;5093138;28;20299;-56
2021/09/18 08:12:13;;;;;;;2.53;2.10;;;16.10;50.10;;;;;;5093313;28;20660;-52
2021/09/18 08:14:43;;;;;;;2.60;2.05;;;16.00;50.10;;;;;;5093190;28;20265;-50
2021/09/18 08:17:12;;;;;;;3.08;2.63;;;16.00;50.10;;;;;;5093375;28;20234;-53
2021/09/18 08:19:42;;;;;;;2.80;2.50;;;16.00;50.20;;;;;;5093029;28;20238;-53
2021/09/18 08:22:12;;;;;;;3.83;2.80;;;16.00;50.20;;;;;;5093107;28;20237;-50
2021/09/18 08:24:42;;;;;;;3.67;2.58;;;15.90;50.10;;;;;;5093276;28;20226;-51
2021/09/18 08:27:13;;;;;;;2.92;2.63;;;15.90;50.10;;;;;;5093290;28;20233;-53
2021/09/18 08:29:42;;;;;;;4.32;3.17;;;15.90;50.20;;;;;;5093194;28;20301;-56
2021/09/18 08:32:12;;;;;;;3.95;3.20;;;15.90;50.20;;;;;;5093365;28;20230;-52
2021/09/18 08:34:42;;;;;;;3.72;3.08;;;15.90;50.20;;;;;;5093507;28;20222;-52
2021/09/18 08:37:12;;;;;;;3.28;2.95;;;15.90;50.20;;;;;;5089325;28;20256;-54
2021/09/18 08:39:41;;;;;;;4.00;3.17;;;15.80;50.20;;;;;;5102271;28;20248;-53
2021/09/18 08:42:13;;;;;;;3.20;2.90;;;15.80;50.20;;;;;;5092421;28;20241;-54
2021/09/18 08:44:42;;;;;;;7.13;3.38;;;15.80;50.30;;;;;;5091902;28;20229;-53
2021/09/18 08:47:12;;;;;;;6.95;3.25;;;15.80;50.70;;;;;;5087919;28;20241;-50
2021/09/18 08:49:42;;;;;;;4.65;3.35;;;15.80;51.00;;;;;;5069067;28;20248;-52
2021/09/18 08:52:12;;;;;;;5.78;3.10;;;15.80;51.00;;;;;;5103170;28;20249;-56
2021/09/18 08:54:42;;;;;;;7.43;3.58;;;15.80;51.00;;;;;;5106351;28;20269;-55
2021/09/18 08:57:13;;;;;;;7.47;3.95;;;15.80;51.00;;;;;;5089735;28;20249;-54
2021/09/18 08:59:43;;;;;;;7.22;3.47;;;15.70;51.00;;;;;;5088783;28;20210;-50
2021/09/18 09:02:14;;;;;;;7.68;3.55;;;15.70;51.00;;;;;;5089009;28;20202;-55
2021/09/18 09:04:44;;;;;;;7.72;3.67;;;15.70;51.10;;;;;;5087516;28;20268;-51
2021/09/18 09:07:15;;;;;;;6.35;3.67;;;15.70;51.20;;;;;;5083596;28;20206;-52
2021/09/18 09:09:55;;;;;;;5.82;3.63;;;15.70;51.30;;;;;;5087917;28;20216;-52
2021/09/18 09:12:29;;;;;;;8.48;4.22;;;15.70;51.30;;;;;;5108948;28;20263;-54
2021/09/18 09:14:59;;;;;;;6.40;3.83;;;15.60;51.40;;;;;;5109710;28;20751;-52
2021/09/18 09:17:30;;;;;;;5.75;3.85;;;15.60;51.40;;;;;;5102638;28;20297;-52
2021/09/18 09:19:59;;;;;;;7.88;3.60;;;15.60;51.40;;;;;;5087632;28;20690;-51
2021/09/18 09:22:40;;;;;;;4.38;3.38;;;15.60;51.40;;;;;;5088443;28;20296;-51
2021/09/18 09:25:27;;;;;;;4.93;4.00;;;15.60;51.40;;;;;;5087536;28;20229;-55
2021/09/18 09:27:58;;;;;;;7.40;4.05;;;15.60;51.40;;;;;;5089110;28;20763;-53
2021/09/18 09:30:32;;;;;;;5.35;3.70;;;15.50;51.40;;;;;;5108599;28;20288;-52
2021/09/18 09:33:08;;;;;;;7.88;3.75;;;15.50;51.40;;;;;;5108849;28;20312;-54
2021/09/18 09:35:38;;;;;;;5.75;3.90;;;15.50;51.40;;;;;;5097588;28;20260;-55
2021/09/18 09:38:08;;;;;;;9.88;3.70;;;15.50;51.50;;;;;;5087691;28;20309;-51
2021/09/18 09:40:39;;;;;;;5.93;4.00;;;15.40;51.50;;;;;;5090304;28;20401;-54
2021/09/18 09:43:10;;;;;;;5.40;3.65;;;15.40;51.50;;;;;;5088853;28;20202;-48
2021/09/18 09:45:40;;;;;;;5.45;3.83;;;15.40;51.60;;;;;;5087504;28;20282;-50
2021/09/18 09:48:11;;;;;;;5.93;4.00;;;15.40;51.70;;;;;;5075768;28;20289;-54
2021/09/18 09:50:42;;;;;;;5.22;3.55;;;15.40;51.70;;;;;;5067731;28;20559;-53
2021/09/18 09:53:24;;;;;;;4.43;3.47;;;15.30;51.70;;;;;;5068264;28;20266;-50
2021/09/18 09:55:54;;;;;;;5.00;3.78;;;15.30;51.70;;;;;;5080819;28;20229;-48
2021/09/18 09:58:25;;;;;;;5.10;3.67;;;15.30;51.70;;;;;;5074586;28;20286;-49
2021/09/18 10:00:55;;;;;;;5.72;3.78;;;15.30;51.70;;;;;;5067899;28;20297;-54
2021/09/18 10:03:25;;;;;;;4.70;3.42;;;15.30;51.70;;;;;;5068123;28;20332;-51
2021/09/18 10:05:55;;;;;;;4.65;3.55;;;15.20;51.70;;;;;;5067120;28;20262;-52
2021/09/18 10:08:26;;;;;;;5.90;3.80;;;15.20;51.70;;;;;;5067670;28;20249;-58
2021/09/18 10:10:56;;;;;;;4.85;3.63;;;15.20;51.80;;;;;;5068867;28;20241;-54
2021/09/18 10:13:27;;;;;;;5.38;3.15;;;15.20;51.70;;;;;;5068433;28;20258;-57
2021/09/18 10:15:56;;;;;;;5.63;3.55;;;15.10;51.60;;;;;;5068224;28;20258;-56
2021/09/18 10:18:29;;;;;;;5.05;3.47;;;15.10;51.70;;;;;;5068511;28;20299;-57
2021/09/18 10:23:46;;;;;;;3.92;3.10;;;15.00;51.60;;;;;;5068958;28;20256;-57
2021/09/18 10:26:15;;;;;;;5.38;3.45;;;15.00;51.60;;;;;;5085182;28;20206;-58
2021/09/18 10:28:47;;;;;;;5.50;3.60;;;15.00;51.60;;;;;;5089640;28;20249;-58
2021/09/18 10:31:17;;;;;;;4.65;3.42;;;15.00;51.60;;;;;;5088742;28;20202;-56
2021/09/18 10:33:48;;;;;;;4.55;3.30;;;15.00;51.60;;;;;;5089230;28;20288;-58
2021/09/18 10:36:19;;;;;;;4.93;3.38;;;15.00;51.60;;;;;;5088446;28;20233;-56
2021/09/18 10:38:49;;;;;;;5.68;3.80;;;14.90;51.60;;;;;;5088757;28;20726;-56
2021/09/18 10:41:20;;;;;;;5.25;3.58;;;14.90;51.60;;;;;;5088642;28;20340;-55
2021/09/18 10:43:57;;;;;;;3.88;3.38;;;14.90;51.60;;;;;;5088840;28;20217;-57
2021/09/18 10:46:42;;;;;;;5.43;3.63;;;14.90;51.60;;;;;;5088580;28;20309;-58
2021/09/18 10:49:40;;;;;;;4.68;3.80;;;14.80;51.60;;;;;;5086469;28;20251;-57
2021/09/18 10:52:24;;;;;;;4.93;3.70;;;14.80;51.60;;;;;;5088053;28;20230;-57
2021/09/18 10:55:12;;;;;;;5.90;3.90;;;14.80;51.50;;;;;;5088199;28;20233;-56
2021/09/18 10:58:08;;;;;;;5.75;4.38;;;14.80;51.60;;;;;;5088494;28;20210;-58
2021/09/18 11:00:50;;;;;;;4.40;3.78;;;14.70;51.50;;;;;;5087980;28;20213;-57
2021/09/18 11:03:43;;;;;;;6.18;3.75;;;14.70;51.50;;;;;;5088089;28;20202;-55
2021/09/18 11:06:27;;;;;;;13.93;4.43;;;14.70;51.60;;;;;;5086268;28;20214;-55
2021/09/18 11:08:56;;;;;;;32.00;6.53;;;14.70;51.60;;;;;;5071777;28;20761;-56
2021/09/18 11:11:29;;;;;;;32.08;5.78;;;14.70;51.60;;;;;;5087613;28;20301;-57
2021/09/18 11:13:59;;;;;;;16.58;4.35;;;14.60;51.60;;;;;;5087487;28;20249;-58
2021/09/18 11:16:33;;;;;;;14.98;4.82;;;14.60;51.60;;;;;;5088063;28;20244;-53
2021/09/18 11:19:05;;;;;;;18.40;4.88;;;14.60;51.60;;;;;;5088041;28;20209;-52
2021/09/18 11:21:36;;;;;;;10.30;4.55;;;14.60;51.70;;;;;;5088320;28;20727;-55
2021/09/18 11:24:21;;;;;;;8.10;3.65;;;14.60;51.70;;;;;;5087759;28;20261;-55
2021/09/18 11:26:51;;;;;;;8.20;4.43;;;14.50;51.70;;;;;;5087972;28;20202;-55
2021/09/18 11:29:33;;;;;;;10.18;4.25;;;14.50;51.70;;;;;;5087456;28;20244;-56
2021/09/18 11:32:18;;;;;;;8.48;4.35;;;14.50;51.70;;;;;;5089069;28;20256;-54
2021/09/18 11:34:51;;;;;;;6.80;4.15;;;14.50;51.80;;;;;;5087249;28;20643;-55
2021/09/18 11:37:26;;;;;;;8.05;3.58;;;14.50;51.80;;;;;;5087531;28;20201;-53
2021/09/18 11:39:57;;;;;;;9.10;4.05;;;14.50;51.80;;;;;;5087837;28;20300;-54
2021/09/18 11:42:31;;;;;;;4.78;3.63;;;14.40;51.80;;;;;;5088206;28;20239;-58
2021/09/18 11:45:06;;;;;;;5.68;3.58;;;14.50;51.90;;;;;;5091386;28;20605;-56
2021/09/18 11:47:37;;;;;;;6.32;3.97;;;14.40;51.80;;;;;;5091231;28;20288;-51
2021/09/18 11:50:23;;;;;;;7.75;3.55;;;14.40;51.90;;;;;;5090461;28;20267;-56
2021/09/18 11:52:53;;;;;;;4.97;3.08;;;14.40;51.90;;;;;;5093193;28;20225;-50
2021/09/18 11:55:30;;;;;;;6.32;3.47;;;14.40;51.90;;;;;;5090284;28;20286;-54
2021/09/18 11:58:17;;;;;;;4.63;3.20;;;14.40;51.90;;;;;;5090415;28;20594;-51
2021/09/18 12:00:48;;;;;;;8.95;3.70;;;14.40;51.90;;;;;;5090545;28;20237;-57
2021/09/18 12:03:23;;;;;;;4.50;3.10;;;14.40;51.90;;;;;;5091364;28;20271;-51
2021/09/18 12:05:54;;;;;;;4.97;3.13;;;14.30;51.90;;;;;;5089784;28;20253;-52
2021/09/18 12:08:25;;;;;;;6.80;3.53;;;14.30;51.90;;;;;;5091374;28;20313;-52
2021/09/18 12:10:54;;;;;;;5.18;2.97;;;14.30;51.90;;;;;;5091260;28;20213;-55
2021/09/18 12:13:24;;;;;;;4.68;2.88;;;14.30;51.90;;;;;;5090841;28;20304;-56
2021/09/18 12:15:54;;;;;;;5.18;3.25;;;14.30;51.90;;;;;;5090552;28;20268;-54
2021/09/18 12:18:26;;;;;;;4.88;3.08;;;14.30;51.90;;;;;;5091079;28;20613;-56
2021/09/18 12:20:57;;;;;;;3.88;2.95;;;14.30;52.00;;;;;;5090725;28;20588;-55
2021/09/18 12:23:27;;;;;;;4.18;2.65;;;14.20;51.90;;;;;;5090428;28;20262;-52
2021/09/18 12:25:58;;;;;;;5.35;3.80;;;14.20;51.90;;;;;;5090053;28;20312;-55
2021/09/18 12:28:27;;;;;;;4.20;3.22;;;14.20;51.90;;;;;;5090219;28;20245;-56
2021/09/18 12:30:57;;;;;;;4.07;2.70;;;14.20;52.00;;;;;;5090030;28;20288;-56
2021/09/18 12:33:33;;;;;;;6.97;2.70;;;14.20;52.00;;;;;;5090261;28;20705;-55
2021/09/18 12:36:06;;;;;;;4.32;2.70;;;14.20;52.00;;;;;;5090388;28;20231;-50
2021/09/18 12:38:36;;;;;;;4.03;2.78;;;14.20;52.00;;;;;;5090487;28;20288;-55
2021/09/18 12:41:06;;;;;;;3.47;2.67;;;14.20;52.00;;;;;;5090469;28;20644;-53
2021/09/18 12:43:36;;;;;;;4.35;3.10;;;14.20;52.00;;;;;;5090147;28;20300;-52
2021/09/18 12:46:08;;;;;;;3.80;2.92;;;14.20;52.00;;;;;;5092356;28;20266;-55
2021/09/18 12:48:38;;;;;;;4.10;3.00;;;14.10;52.00;;;;;;5092662;28;20287;-52
2021/09/18 12:51:09;;;;;;;5.15;2.80;;;14.10;52.00;;;;;;5092940;28;20286;-56
2021/09/18 12:53:44;;;;;;;4.78;3.10;;;14.10;52.00;;;;;;5092892;28;20308;-55
2021/09/18 12:56:22;;;;;;;3.33;2.50;;;14.10;52.00;;;;;;5092595;28;20233;-55
2021/09/18 12:58:52;;;;;;;4.53;2.95;;;14.10;52.00;;;;;;5092885;28;20198;-53
2021/09/18 13:01:23;;;;;;;5.10;3.13;;;14.10;52.00;;;;;;5092866;28;20224;-52
2021/09/18 13:04:04;;;;;;;3.47;2.67;;;14.10;52.10;;;;;;5093504;28;20248;-55
2021/09/18 13:06:34;;;;;;;3.40;2.30;;;14.10;52.10;;;;;;5092761;28;20588;-56
2021/09/18 13:09:05;;;;;;;4.70;2.90;;;14.10;52.10;;;;;;5092826;28;20198;-52